Time;durP1;ratioP1;P1;durP2;ratioP2;P2;SDS_P1;SDS_P2;PMS_P1;PMS_P2;Temp;Humidity;BMP_temperature;BMP_pressure;BME280_temperature;BME280_humidity;BME280_pressure;Samples;Min_cycle;Max_cycle;Signal;HPM_P1;HPM_P2
2023/01/16 00:00:37;;;;;;;1.98;0.95;;;18.70;62.40;;;;;;7401030;19;19922;-71
2023/01/16 00:03:06;;;;;;;0.70;0.50;;;18.70;62.40;;;;;;7401941;19;19914;-71
2023/01/16 00:05:35;;;;;;;0.80;0.20;;;18.70;62.40;;;;;;7402361;19;20357;-71
2023/01/16 00:08:19;;;;;;;1.23;0.20;;;18.70;62.50;;;;;;7402212;19;19922;-71
2023/01/16 00:10:48;;;;;;;0.60;0.15;;;18.60;62.50;;;;;;7402241;19;19915;-71
2023/01/16 00:13:17;;;;;;;1.23;0.10;;;18.60;62.50;;;;;;7401404;19;22094;-71
2023/01/16 00:15:51;;;;;;;1.40;0.60;;;18.60;62.60;;;;;;7400466;19;19977;-71
2023/01/16 00:18:20;;;;;;;1.05;0.50;;;18.60;62.70;;;;;;7401204;19;19919;-71
2023/01/16 00:20:50;;;;;;;1.33;0.70;;;18.50;62.80;;;;;;7401216;19;19935;-71
2023/01/16 00:23:19;;;;;;;1.20;0.60;;;18.40;62.80;;;;;;7401166;19;19910;-71
2023/01/16 00:25:48;;;;;;;0.88;0.10;;;18.40;62.90;;;;;;7400930;19;20256;-71
2023/01/16 00:28:18;;;;;;;0.90;0.50;;;18.40;63.60;;;;;;7401046;19;19970;-71
2023/01/16 00:30:49;;;;;;;1.15;0.50;;;18.30;63.10;;;;;;7402362;19;19960;-71
2023/01/16 00:33:18;;;;;;;1.27;0.55;;;18.30;63.20;;;;;;7400839;19;20369;-71
2023/01/16 00:35:49;;;;;;;1.60;0.90;;;18.20;63.30;;;;;;7399818;19;19955;-72
2023/01/16 00:38:18;;;;;;;0.60;0.10;;;18.10;63.30;;;;;;7402000;19;19943;-71
2023/01/16 00:40:47;;;;;;;0.95;0.50;;;18.10;63.40;;;;;;7403447;19;19919;-72
2023/01/16 00:43:16;;;;;;;1.20;0.15;;;18.00;63.50;;;;;;7262835;19;2800161;-71
2023/01/16 00:45:45;;;;;;;0.93;0.50;;;18.00;63.50;;;;;;7410243;19;19923;-71
2023/01/16 00:48:17;;;;;;;1.70;0.80;;;18.00;63.60;;;;;;7408798;19;19914;-71
2023/01/16 00:50:46;;;;;;;0.65;0.10;;;18.00;63.60;;;;;;7408015;19;20357;-71
2023/01/16 00:53:15;;;;;;;1.33;0.50;;;18.00;63.60;;;;;;7412218;19;20307;-70
2023/01/16 00:55:44;;;;;;;0.90;0.57;;;18.00;63.60;;;;;;7408573;19;19978;-71
2023/01/16 00:58:13;;;;;;;1.13;0.55;;;18.00;63.60;;;;;;7407315;19;19954;-72
2023/01/16 01:00:44;;;;;;;1.10;0.50;;;18.00;63.60;;;;;;7408303;19;20358;-71
2023/01/16 01:03:13;;;;;;;0.60;0.15;;;18.00;63.50;;;;;;7408984;19;19915;-71
2023/01/16 01:05:45;;;;;;;1.40;0.52;;;18.10;63.60;;;;;;7408810;19;19942;-71
2023/01/16 01:08:14;;;;;;;0.70;0.10;;;18.10;63.40;;;;;;7408511;19;20001;-71
2023/01/16 01:10:43;;;;;;;0.60;0.10;;;18.20;63.40;;;;;;7412899;19;19914;-71
2023/01/16 01:13:12;;;;;;;1.10;0.50;;;18.20;63.30;;;;;;7412624;19;19940;-71
2023/01/16 01:15:42;;;;;;;0.60;0.30;;;18.30;63.20;;;;;;7408305;19;19918;-71
2023/01/16 01:18:11;;;;;;;1.05;0.10;;;18.30;63.20;;;;;;7407253;19;19926;-71
2023/01/16 01:20:39;;;;;;;1.08;0.52;;;18.40;63.10;;;;;;7408213;19;19980;-71
2023/01/16 01:23:11;;;;;;;1.35;0.40;;;18.40;63.00;;;;;;7408961;19;19915;-70
2023/01/16 01:25:40;;;;;;;0.60;0.10;;;18.50;63.00;;;;;;7404633;19;19929;-71
2023/01/16 01:28:09;;;;;;;0.73;0.35;;;18.50;62.90;;;;;;7407679;19;19986;-71
2023/01/16 01:30:39;;;;;;;1.17;0.22;;;18.50;62.90;;;;;;7407379;19;19923;-71
2023/01/16 01:33:09;;;;;;;0.50;0.13;;;18.60;62.80;;;;;;7407881;19;19918;-71
2023/01/16 01:35:44;;;;;;;0.50;0.20;;;18.70;62.80;;;;;;7407964;19;19939;-71
2023/01/16 01:38:15;;;;;;;0.77;0.38;;;18.70;62.70;;;;;;7406522;19;19930;-71
2023/01/16 01:40:44;;;;;;;0.75;0.10;;;18.70;62.80;;;;;;7406413;19;19922;-71
2023/01/16 01:43:15;;;;;;;;;;;18.60;62.70;;;;;;7408502;19;19921;-71
2023/01/16 01:45:46;;;;;;;0.45;0.05;;;18.60;62.80;;;;;;7408775;19;19930;-71
2023/01/16 01:48:27;;;;;;;1.58;0.60;;;18.50;62.90;;;;;;7405656;19;19947;-71
2023/01/16 01:51:00;;;;;;;1.10;0.55;;;18.60;63.00;;;;;;7405341;19;19926;-71
2023/01/16 01:53:35;;;;;;;1.30;0.20;;;18.50;63.10;;;;;;7409489;19;20313;-71
2023/01/16 01:56:11;;;;;;;0.93;0.10;;;18.50;63.10;;;;;;7407719;19;19922;-71
2023/01/16 01:58:41;;;;;;;1.13;0.10;;;18.40;63.20;;;;;;7407615;19;19919;-70
2023/01/16 02:01:10;;;;;;;;;;;18.40;63.40;;;;;;7413086;19;19915;-71
2023/01/16 02:03:42;;;;;;;1.13;0.43;;;18.30;63.30;;;;;;7405721;19;19923;-71
2023/01/16 02:06:20;;;;;;;1.52;0.60;;;18.30;63.60;;;;;;7406974;19;20258;-71
2023/01/16 02:08:55;;;;;;;0.90;0.57;;;18.20;63.50;;;;;;7406827;19;19926;-71
2023/01/16 02:11:32;;;;;;;0.73;0.10;;;18.20;63.60;;;;;;7406417;19;19935;-71
2023/01/16 02:14:06;;;;;;;0.77;0.10;;;18.10;63.70;;;;;;7406923;19;19919;-71
2023/01/16 02:19:38;;;;;;;1.33;0.60;;;18.00;63.90;;;;;;7403755;19;19927;-71
2023/01/16 02:22:32;;;;;;;0.68;0.15;;;18.00;63.90;;;;;;7406622;19;19921;-71
2023/01/16 02:25:39;;;;;;;1.48;0.52;;;18.00;64.00;;;;;;7405006;19;19918;-71
2023/01/16 02:28:40;;;;;;;1.10;0.30;;;17.90;64.00;;;;;;7403995;19;19974;-71
2023/01/16 02:31:37;;;;;;;0.98;0.30;;;17.90;64.00;;;;;;7405183;19;19918;-71
2023/01/16 02:34:34;;;;;;;1.25;0.17;;;17.90;64.10;;;;;;7406228;19;20242;-71
2023/01/16 02:37:11;;;;;;;0.85;0.50;;;18.00;64.10;;;;;;7405966;19;20348;-71
2023/01/16 02:39:48;;;;;;;0.60;0.13;;;18.00;64.00;;;;;;7401189;19;19939;-71
2023/01/16 02:42:26;;;;;;;1.02;0.43;;;18.00;63.90;;;;;;7404223;19;19927;-71
2023/01/16 02:45:04;;;;;;;0.85;0.10;;;18.00;63.90;;;;;;7406104;19;19943;-71
2023/01/16 02:47:42;;;;;;;1.45;0.75;;;18.20;63.90;;;;;;7406112;19;19922;-71
2023/01/16 02:50:21;;;;;;;0.68;0.10;;;18.20;63.80;;;;;;7404909;19;19934;-71
2023/01/16 02:52:56;;;;;;;0.70;0.60;;;18.20;63.70;;;;;;7410070;19;19925;-71
2023/01/16 02:55:29;;;;;;;;;;;18.30;63.70;;;;;;7407675;19;19915;-71
2023/01/16 02:58:02;;;;;;;1.33;0.80;;;18.40;63.70;;;;;;7405772;19;19926;-71
2023/01/16 03:00:31;;;;;;;0.98;0.60;;;18.50;63.50;;;;;;7409233;19;19934;-71
2023/01/16 03:03:04;;;;;;;1.15;1.05;;;18.50;63.40;;;;;;7400617;19;19926;-71
2023/01/16 03:05:41;;;;;;;1.00;0.73;;;18.60;63.20;;;;;;7406314;19;20393;-71
2023/01/16 03:08:41;;;;;;;0.60;0.10;;;18.60;63.20;;;;;;7403915;19;19919;-71
2023/01/16 03:11:22;;;;;;;0.57;0.10;;;18.70;63.10;;;;;;7407693;19;19922;-71
2023/01/16 03:14:19;;;;;;;1.13;0.45;;;18.70;63.10;;;;;;7405056;19;19933;-71
2023/01/16 03:17:02;;;;;;;0.80;0.25;;;18.70;63.10;;;;;;7405054;19;19918;-71
2023/01/16 03:19:54;;;;;;;0.82;0.43;;;18.70;63.00;;;;;;7403145;19;19915;-71
2023/01/16 03:22:30;;;;;;;0.80;0.10;;;18.70;63.10;;;;;;7404395;19;19939;-71
2023/01/16 03:25:10;;;;;;;0.40;0.10;;;18.60;63.10;;;;;;7407860;19;20353;-71
2023/01/16 03:27:47;;;;;;;0.57;0.00;;;18.60;63.20;;;;;;7402547;19;19938;-71
2023/01/16 03:30:26;;;;;;;1.13;0.95;;;18.60;63.90;;;;;;7402217;19;19922;-70
2023/01/16 03:33:00;;;;;;;0.70;0.32;;;18.50;63.40;;;;;;7404226;19;19935;-71
2023/01/16 03:35:35;;;;;;;0.93;0.50;;;18.50;63.50;;;;;;7405017;19;19926;-71
2023/01/16 03:38:12;;;;;;;;;;;18.40;63.50;;;;;;7407021;19;19922;-71
2023/01/16 03:40:47;;;;;;;0.43;0.10;;;18.40;63.50;;;;;;7404928;19;19910;-71
2023/01/16 03:43:20;;;;;;;0.93;0.10;;;18.30;63.70;;;;;;7406572;19;19932;-71
2023/01/16 03:45:55;;;;;;;0.90;0.10;;;18.30;63.80;;;;;;7404458;19;20257;-71
2023/01/16 03:48:30;;;;;;;0.90;0.52;;;18.20;63.80;;;;;;7403146;19;19934;-71
2023/01/16 03:51:06;;;;;;;0.90;0.45;;;18.20;64.50;;;;;;7404174;19;20365;-70
2023/01/16 03:53:38;;;;;;;0.47;0.20;;;18.20;64.00;;;;;;7403998;19;19926;-71
2023/01/16 03:56:14;;;;;;;0.70;0.03;;;18.10;64.10;;;;;;7403467;19;19932;-71
2023/01/16 03:58:45;;;;;;;0.82;0.75;;;18.00;64.20;;;;;;7403656;19;19918;-71
2023/01/16 04:01:23;;;;;;;0.77;0.10;;;18.00;64.20;;;;;;7403822;19;20308;-71
2023/01/16 04:04:00;;;;;;;0.63;0.10;;;18.00;64.30;;;;;;7403666;19;19990;-71
2023/01/16 04:06:37;;;;;;;1.85;0.63;;;18.00;64.30;;;;;;7403807;19;19978;-71
2023/01/16 04:09:12;;;;;;;0.93;0.50;;;17.90;64.30;;;;;;7408390;19;20366;-71
2023/01/16 04:11:42;;;;;;;0.93;0.50;;;18.00;64.30;;;;;;7402384;19;19990;-71
2023/01/16 04:14:14;;;;;;;0.82;0.10;;;18.00;64.30;;;;;;7403291;19;20349;-71
2023/01/16 04:16:44;;;;;;;1.00;0.57;;;18.00;64.30;;;;;;7405801;19;19918;-72
2023/01/16 04:19:16;;;;;;;0.80;0.10;;;18.00;64.30;;;;;;7403127;19;19914;-71
2023/01/16 04:21:49;;;;;;;0.68;0.52;;;18.00;64.30;;;;;;7403220;19;19919;-71
2023/01/16 04:24:19;;;;;;;0.80;0.03;;;18.10;64.30;;;;;;7403536;19;20559;-71
2023/01/16 04:26:51;;;;;;;1.33;0.10;;;18.10;64.20;;;;;;7401372;19;19928;-71
2023/01/16 04:29:20;;;;;;;0.85;0.40;;;18.20;64.20;;;;;;7401272;19;19967;-71
2023/01/16 04:31:49;;;;;;;0.35;0.00;;;18.20;64.00;;;;;;7402694;19;19915;-71
2023/01/16 04:34:18;;;;;;;0.80;0.20;;;18.30;64.00;;;;;;7402630;19;20318;-71
2023/01/16 04:36:50;;;;;;;0.50;0.10;;;18.30;63.80;;;;;;7403027;19;19939;-71
2023/01/16 04:39:19;;;;;;;0.55;0.08;;;18.40;63.70;;;;;;7402166;19;19974;-71
2023/01/16 04:41:50;;;;;;;0.80;0.45;;;18.50;63.60;;;;;;7400784;19;20360;-71
2023/01/16 04:44:20;;;;;;;0.80;0.60;;;18.50;63.50;;;;;;7402658;19;19919;-72
2023/01/16 04:46:49;;;;;;;1.10;0.98;;;18.60;63.40;;;;;;7400117;19;19932;-71
2023/01/16 04:49:19;;;;;;;0.80;0.20;;;18.60;63.40;;;;;;7405430;19;20332;-71
2023/01/16 04:51:50;;;;;;;;;;;18.60;63.30;;;;;;7406834;19;20244;-71
2023/01/16 04:54:21;;;;;;;0.60;0.10;;;18.70;63.40;;;;;;7401651;19;19915;-71
2023/01/16 04:56:50;;;;;;;0.80;0.50;;;18.70;63.30;;;;;;7403740;19;19926;-71
2023/01/16 04:59:20;;;;;;;0.70;0.20;;;18.70;63.30;;;;;;7401356;19;19907;-71
2023/01/16 05:01:49;;;;;;;0.68;0.00;;;18.70;63.30;;;;;;7403482;19;20337;-71
2023/01/16 05:04:19;;;;;;;1.20;0.40;;;18.60;63.40;;;;;;7402096;19;19919;-71
2023/01/16 05:06:51;;;;;;;1.08;0.90;;;18.60;63.40;;;;;;7402211;19;20401;-71
2023/01/16 05:09:20;;;;;;;0.95;0.10;;;18.60;63.50;;;;;;7399465;19;19922;-71
2023/01/16 05:11:52;;;;;;;0.60;0.50;;;18.50;63.60;;;;;;7397294;19;19929;-71
2023/01/16 05:14:23;;;;;;;0.80;0.40;;;18.50;63.70;;;;;;7401833;19;19939;-71
2023/01/16 05:16:52;;;;;;;1.05;0.47;;;18.40;63.70;;;;;;7401911;19;19925;-71
2023/01/16 05:19:24;;;;;;;0.47;0.10;;;18.40;63.80;;;;;;7401014;19;19918;-71
2023/01/16 05:21:56;;;;;;;0.70;0.10;;;18.30;63.90;;;;;;7401799;19;20016;-71
2023/01/16 05:24:25;;;;;;;0.60;0.10;;;18.30;63.90;;;;;;7403356;19;19922;-71
2023/01/16 05:26:54;;;;;;;0.95;0.10;;;18.20;63.90;;;;;;7403226;19;19939;-71
2023/01/16 05:29:23;;;;;;;0.85;0.10;;;18.20;64.60;;;;;;7407648;19;19914;-71
2023/01/16 05:31:52;;;;;;;1.00;0.70;;;18.20;64.70;;;;;;7410319;19;20349;-71
2023/01/16 05:34:41;;;;;;;0.45;0.10;;;18.10;64.10;;;;;;7404657;19;19918;-71
2023/01/16 05:37:32;;;;;;;0.80;0.20;;;18.10;64.30;;;;;;7409390;19;19919;-71
2023/01/16 05:40:01;;;;;;;1.00;0.52;;;18.00;64.30;;;;;;7406204;19;19929;-71
2023/01/16 05:42:35;;;;;;;1.00;0.05;;;18.00;64.40;;;;;;7407293;19;20347;-71
2023/01/16 05:45:05;;;;;;;0.80;0.55;;;18.00;64.30;;;;;;7407879;19;19921;-71
2023/01/16 05:47:35;;;;;;;0.70;0.10;;;18.00;64.30;;;;;;7410364;19;19926;-71
2023/01/16 05:50:05;;;;;;;0.85;0.43;;;18.00;64.30;;;;;;7407780;19;19929;-70
2023/01/16 05:52:36;;;;;;;0.80;0.10;;;18.00;64.30;;;;;;7407300;19;19951;-71
2023/01/16 05:55:07;;;;;;;1.10;0.10;;;18.00;64.30;;;;;;7406746;19;19911;-71
2023/01/16 05:57:36;;;;;;;1.17;0.65;;;18.00;64.20;;;;;;7407170;19;19966;-71
2023/01/16 06:00:07;;;;;;;0.70;0.10;;;18.10;64.20;;;;;;7406017;19;19914;-71
2023/01/16 06:02:36;;;;;;;1.10;0.70;;;18.10;64.20;;;;;;7406109;19;19921;-70
2023/01/16 06:05:06;;;;;;;1.20;0.73;;;18.20;64.10;;;;;;7406067;19;19922;-71
2023/01/16 06:07:38;;;;;;;0.77;0.43;;;18.20;64.10;;;;;;7407327;19;19915;-70
2023/01/16 06:10:08;;;;;;;1.30;0.50;;;18.30;64.00;;;;;;7407297;19;19915;-71
2023/01/16 06:12:37;;;;;;;1.00;0.10;;;18.30;63.90;;;;;;7407060;19;20317;-71
2023/01/16 06:15:07;;;;;;;0.50;0.20;;;18.40;63.90;;;;;;7407882;19;19926;-71
2023/01/16 06:17:36;;;;;;;0.85;0.40;;;18.40;63.80;;;;;;7406882;19;19919;-71
2023/01/16 06:20:06;;;;;;;0.98;0.70;;;18.50;63.70;;;;;;7405864;19;20340;-71
2023/01/16 06:22:38;;;;;;;0.68;0.17;;;18.60;63.60;;;;;;7406730;19;19922;-71
2023/01/16 06:25:08;;;;;;;0.30;0.10;;;18.60;63.50;;;;;;7394087;19;20045;-71
2023/01/16 06:27:37;;;;;;;5.85;0.73;;;18.70;63.40;;;;;;7394290;19;19922;-71
2023/01/16 06:30:08;;;;;;;0.65;0.10;;;18.70;63.40;;;;;;7399535;19;20381;-70
2023/01/16 06:32:37;;;;;;;1.85;0.20;;;18.70;63.40;;;;;;7374511;19;19922;-71
2023/01/16 06:35:07;;;;;;;0.82;0.20;;;18.70;63.60;;;;;;7376519;19;19922;-70
2023/01/16 06:37:39;;;;;;;0.75;0.10;;;18.70;63.60;;;;;;7380133;19;19926;-70
2023/01/16 06:40:10;;;;;;;0.82;0.10;;;18.70;63.70;;;;;;7374404;19;19918;-70
2023/01/16 06:42:39;;;;;;;1.10;0.10;;;18.70;63.80;;;;;;7375709;19;20284;-70
2023/01/16 06:45:09;;;;;;;1.42;0.63;;;18.60;63.80;;;;;;7384570;19;19953;-68
2023/01/16 06:47:39;;;;;;;2.35;0.50;;;18.60;63.90;;;;;;7382877;19;19911;-71
2023/01/16 06:50:08;;;;;;;4.20;1.27;;;18.50;64.10;;;;;;7382939;19;19925;-70
2023/01/16 06:52:43;;;;;;;3.17;0.40;;;18.60;64.30;;;;;;7382121;19;19922;-70
2023/01/16 06:55:12;;;;;;;1.27;0.10;;;18.50;64.30;;;;;;7381510;19;19971;-65
2023/01/16 06:57:43;;;;;;;1.15;0.65;;;18.50;64.40;;;;;;7383933;19;19922;-65
2023/01/16 07:00:13;;;;;;;1.20;0.10;;;18.40;64.50;;;;;;7383438;19;20337;-65
2023/01/16 07:02:55;;;;;;;1.30;0.10;;;18.40;64.50;;;;;;7382307;19;19982;-65
2023/01/16 07:05:25;;;;;;;1.65;0.50;;;18.40;64.70;;;;;;7381392;19;19971;-69
2023/01/16 07:07:56;;;;;;;2.05;0.77;;;18.30;64.70;;;;;;7380671;19;19929;-69
2023/01/16 07:10:26;;;;;;;1.13;0.68;;;18.30;64.70;;;;;;7383192;19;19922;-69
2023/01/16 07:12:57;;;;;;;1.05;0.40;;;18.20;64.80;;;;;;7396523;19;19926;-68
2023/01/16 07:23:43;;;;;;;1.17;0.15;;;18.10;65.00;;;;;;7397101;19;19969;-68
2023/01/16 07:26:13;;;;;;;2.55;0.77;;;18.10;65.10;;;;;;7403957;19;19927;-69
2023/01/16 07:28:43;;;;;;;2.47;0.10;;;18.10;65.10;;;;;;7402951;19;19927;-68
2023/01/16 07:31:11;;;;;;;;;;;18.00;65.10;;;;;;7410026;19;19923;-69
2023/01/16 07:33:40;;;;;;;1.00;0.45;;;18.00;65.20;;;;;;7408365;19;19918;-68
2023/01/16 07:36:10;;;;;;;1.63;0.20;;;18.00;65.10;;;;;;7404910;19;19922;-67
2023/01/16 07:38:41;;;;;;;0.75;0.45;;;18.00;65.10;;;;;;7406039;19;19930;-68
2023/01/16 07:41:10;;;;;;;0.40;0.00;;;18.10;65.10;;;;;;7404958;19;19977;-68
2023/01/16 07:43:39;;;;;;;0.77;0.10;;;18.10;65.00;;;;;;7402277;19;19919;-69
2023/01/16 07:46:08;;;;;;;1.02;0.10;;;18.20;65.60;;;;;;7404051;19;19978;-68
2023/01/16 07:48:38;;;;;;;1.20;0.10;;;18.20;64.90;;;;;;7404389;19;20255;-68
2023/01/16 07:51:07;;;;;;;1.05;0.43;;;18.20;64.80;;;;;;7405911;19;20024;-68
2023/01/16 07:53:36;;;;;;;0.70;0.10;;;18.30;64.80;;;;;;7407441;19;19933;-68
2023/01/16 07:56:08;;;;;;;0.50;0.00;;;18.40;64.70;;;;;;7402653;19;19991;-68
2023/01/16 07:58:39;;;;;;;0.68;0.10;;;18.50;64.60;;;;;;7406104;19;20307;-68
2023/01/16 08:01:08;;;;;;;0.60;0.10;;;18.50;64.50;;;;;;7403320;19;20272;-68
2023/01/16 08:03:37;;;;;;;1.23;0.43;;;18.60;64.50;;;;;;7407692;19;20325;-69
2023/01/16 08:06:07;;;;;;;0.50;0.10;;;18.60;64.30;;;;;;7403342;19;19926;-68
2023/01/16 08:08:35;;;;;;;0.70;0.10;;;18.70;64.30;;;;;;7403245;19;19935;-69
2023/01/16 08:11:35;;;;;;;0.90;0.50;;;18.70;64.10;;;;;;7403971;19;19918;-68
2023/01/16 08:13:56;;;;;;;0.50;0.10;;;18.70;64.20;;;;;;7402760;19;20267;-68
2023/01/16 08:16:25;;;;;;;1.20;0.45;;;18.70;64.70;;;;;;7405442;19;20390;-69
2023/01/16 08:18:54;;;;;;;1.00;0.60;;;18.70;64.10;;;;;;7403292;19;19921;-68
2023/01/16 08:21:23;;;;;;;1.27;0.10;;;18.70;64.70;;;;;;7401841;19;19974;-69
2023/01/16 08:23:52;;;;;;;0.45;0.00;;;18.70;64.20;;;;;;7405349;19;19922;-68
2023/01/16 08:26:24;;;;;;;1.02;0.40;;;18.60;64.20;;;;;;7403214;19;19982;-69
2023/01/16 08:28:53;;;;;;;1.88;0.70;;;18.60;64.20;;;;;;7402098;19;19966;-69
2023/01/16 08:31:22;;;;;;;1.25;0.13;;;18.60;64.30;;;;;;7403883;19;19929;-68
2023/01/16 08:33:52;;;;;;;1.08;0.10;;;18.50;64.40;;;;;;7406256;19;19927;-69
2023/01/16 08:36:21;;;;;;;1.48;0.50;;;18.50;64.50;;;;;;7405234;19;19919;-68
2023/01/16 08:38:50;;;;;;;1.08;1.08;;;18.50;64.60;;;;;;7402172;19;19923;-69
2023/01/16 08:52:13;;;;;;;1.60;0.50;;;18.20;64.70;;;;;;7399837;19;19925;-68
2023/01/16 08:54:43;;;;;;;0.65;0.15;;;18.20;64.80;;;;;;7400317;19;19927;-68
2023/01/16 08:57:12;;;;;;;0.65;0.10;;;18.10;64.90;;;;;;7402648;19;19923;-68
2023/01/16 08:59:43;;;;;;;;;;;18.10;65.00;;;;;;7404280;19;19919;-69
2023/01/16 09:02:14;;;;;;;0.70;0.00;;;18.00;64.90;;;;;;7407779;19;20385;-68
2023/01/16 09:04:44;;;;;;;1.90;0.50;;;18.00;65.00;;;;;;7408499;19;19989;-68
2023/01/16 09:07:15;;;;;;;;;;;18.00;65.10;;;;;;7411423;19;19919;-68
2023/01/16 09:09:44;;;;;;;0.50;0.00;;;18.00;65.00;;;;;;7408580;19;19919;-69
2023/01/16 09:15:11;;;;;;;0.90;0.35;;;18.00;65.00;;;;;;7405940;19;19931;-67
2023/01/16 09:17:40;;;;;;;1.55;0.47;;;18.10;65.10;;;;;;7408282;19;19922;-69
2023/01/16 09:20:10;;;;;;;1.02;0.10;;;18.10;65.00;;;;;;7408870;19;19986;-69
2023/01/16 09:22:39;;;;;;;0.68;0.13;;;18.20;65.00;;;;;;7407907;19;20004;-69
2023/01/16 09:25:09;;;;;;;1.25;0.10;;;18.20;64.80;;;;;;7407590;19;19974;-69
2023/01/16 09:27:38;;;;;;;0.85;0.40;;;18.20;64.80;;;;;;7407669;19;19914;-68
2023/01/16 09:30:11;;;;;;;0.98;0.30;;;18.30;64.80;;;;;;7405193;19;19918;-68
2023/01/16 09:32:40;;;;;;;1.30;0.10;;;18.30;64.70;;;;;;7407785;19;19922;-69
2023/01/16 09:35:10;;;;;;;0.47;0.30;;;18.40;64.50;;;;;;7408939;19;19930;-68
2023/01/16 09:37:40;;;;;;;;;;;18.50;64.60;;;;;;7410170;19;19911;-68
2023/01/16 09:40:12;;;;;;;1.35;0.60;;;18.50;64.50;;;;;;7409191;19;20076;-68
2023/01/16 09:45:42;;;;;;;0.75;0.10;;;18.70;64.20;;;;;;7407423;19;19943;-68
2023/01/16 09:48:16;;;;;;;0.85;0.10;;;18.70;64.00;;;;;;7407630;19;19918;-68
2023/01/16 09:50:50;;;;;;;1.10;0.50;;;18.70;64.00;;;;;;7410390;19;19960;-68
2023/01/16 09:58:49;;;;;;;;;;;18.70;64.00;;;;;;7409231;19;20442;-69
2023/01/16 10:01:28;;;;;;;0.80;0.10;;;18.70;64.00;;;;;;7407191;19;19918;-69
2023/01/16 10:04:06;;;;;;;1.30;0.90;;;18.70;64.20;;;;;;7407518;19;19919;-68
2023/01/16 10:06:42;;;;;;;0.73;0.10;;;18.70;64.20;;;;;;7406838;19;20252;-69
2023/01/16 10:09:22;;;;;;;1.02;0.47;;;18.60;64.20;;;;;;7407354;19;19922;-69
2023/01/16 10:11:59;;;;;;;1.23;0.70;;;18.60;64.30;;;;;;7406474;19;20061;-68
2023/01/16 10:14:51;;;;;;;0.90;0.50;;;18.50;64.40;;;;;;7405096;19;19919;-69
2023/01/16 10:17:31;;;;;;;0.60;0.35;;;18.50;64.40;;;;;;7410115;19;19930;-68
2023/01/16 10:20:19;;;;;;;1.10;0.60;;;18.50;64.50;;;;;;7408368;19;19938;-68
2023/01/16 10:22:57;;;;;;;1.50;0.20;;;18.40;64.50;;;;;;7406454;19;19911;-68
2023/01/16 10:25:31;;;;;;;1.05;0.75;;;18.30;64.50;;;;;;7405969;19;19974;-69
2023/01/16 10:28:16;;;;;;;0.90;0.10;;;18.30;64.50;;;;;;7406890;19;19918;-69
2023/01/16 10:30:51;;;;;;;2.58;0.17;;;18.30;64.60;;;;;;7406352;19;19911;-69
2023/01/16 10:33:27;;;;;;;;;;;18.20;64.60;;;;;;7408368;19;19911;-69
2023/01/16 10:35:59;;;;;;;1.35;0.60;;;18.20;64.50;;;;;;7406105;19;19918;-69
2023/01/16 10:38:39;;;;;;;1.67;0.30;;;18.10;64.80;;;;;;7406199;19;19940;-69
2023/01/16 10:49:25;;;;;;;0.30;0.00;;;18.10;64.80;;;;;;7405382;19;19970;-69
2023/01/16 10:49:28;;;;;;;2.08;0.50;;;18.10;64.90;;;;;;7406120;19;19939;-68
2023/01/16 10:52:02;;;;;;;0.50;0.10;;;18.00;64.80;;;;;;7405809;19;19934;-69
2023/01/16 10:54:31;;;;;;;1.08;0.82;;;18.10;64.90;;;;;;7405603;19;19940;-69
2023/01/16 10:57:03;;;;;;;1.08;0.10;;;18.10;64.90;;;;;;7405239;19;19923;-69
2023/01/16 10:59:34;;;;;;;2.25;0.10;;;18.10;64.80;;;;;;7409413;19;19925;-69
2023/01/16 11:02:17;;;;;;;1.33;0.35;;;18.10;64.80;;;;;;7389785;19;19927;-69
2023/01/16 11:04:48;;;;;;;;;;;18.20;64.70;;;;;;7392129;19;19918;-66
2023/01/16 11:07:19;;;;;;;1.25;0.45;;;18.20;64.80;;;;;;7406162;19;19946;-67
2023/01/16 11:09:48;;;;;;;0.85;0.40;;;18.30;64.70;;;;;;7405645;19;19931;-67
2023/01/16 11:20:45;;;;;;;0.55;0.20;;;18.60;64.30;;;;;;7406642;19;19938;-67
2023/01/16 11:23:20;;;;;;;1.23;0.00;;;18.70;64.30;;;;;;7405926;19;19935;-67
2023/01/16 11:25:51;;;;;;;1.67;0.40;;;18.70;64.20;;;;;;7402694;19;19984;-67
2023/01/16 11:28:25;;;;;;;0.77;0.40;;;18.80;64.10;;;;;;7405267;19;19930;-67
2023/01/16 11:30:56;;;;;;;0.70;0.30;;;18.80;64.10;;;;;;7405803;19;19925;-68
2023/01/16 11:33:28;;;;;;;1.02;0.55;;;18.80;64.10;;;;;;7405472;19;19926;-68
2023/01/16 11:36:03;;;;;;;1.75;0.65;;;18.90;64.10;;;;;;7402580;19;19926;-67
2023/01/16 11:38:35;;;;;;;0.93;0.70;;;18.80;64.10;;;;;;7403588;19;20340;-68
2023/01/16 11:41:07;;;;;;;0.65;0.30;;;18.80;64.20;;;;;;7405036;19;19929;-67
2023/01/16 11:46:33;;;;;;;0.73;0.10;;;18.80;64.30;;;;;;7402970;19;20704;-65
2023/01/16 11:49:03;;;;;;;1.60;0.50;;;18.70;64.30;;;;;;7406471;19;19933;-66
2023/01/16 11:51:40;;;;;;;0.47;0.00;;;18.70;64.50;;;;;;7405768;19;19929;-63
2023/01/16 11:54:15;;;;;;;0.90;0.08;;;18.60;64.50;;;;;;7403181;19;19918;-69
2023/01/16 11:56:52;;;;;;;0.93;0.65;;;18.60;64.60;;;;;;7402838;19;19925;-69
2023/01/16 11:59:39;;;;;;;1.05;0.10;;;18.60;64.70;;;;;;7404801;19;19918;-66
2023/01/16 12:02:19;;;;;;;1.02;0.52;;;18.50;64.70;;;;;;7396862;19;19918;-65
2023/01/16 12:07:47;;;;;;;0.75;0.50;;;18.50;64.90;;;;;;7402526;19;19930;-69
2023/01/16 12:10:32;;;;;;;0.73;0.20;;;18.40;64.90;;;;;;7401229;19;19935;-64
2023/01/16 12:16:01;;;;;;;2.08;0.45;;;18.30;65.00;;;;;;7401566;19;19922;-67
2023/01/16 12:18:37;;;;;;;1.48;0.20;;;18.30;65.20;;;;;;7402377;19;19939;-67
2023/01/16 12:21:18;;;;;;;0.90;0.10;;;18.30;65.30;;;;;;7402534;19;19986;-66
2023/01/16 12:24:09;;;;;;;0.30;0.10;;;18.30;65.30;;;;;;7401160;19;19919;-69
2023/01/16 12:26:47;;;;;;;1.83;0.38;;;18.30;65.40;;;;;;7402272;19;19942;-70
2023/01/16 12:29:33;;;;;;;1.52;0.10;;;18.30;65.40;;;;;;7397561;19;19986;-69
2023/01/16 12:32:16;;;;;;;0.63;0.13;;;18.30;65.40;;;;;;7402960;19;20253;-69
2023/01/16 12:35:12;;;;;;;1.10;0.30;;;18.30;65.40;;;;;;7401218;19;19919;-68
2023/01/16 12:37:57;;;;;;;1.15;0.50;;;18.30;65.30;;;;;;7411311;19;19985;-68
2023/01/16 12:40:45;;;;;;;1.83;0.20;;;18.40;65.30;;;;;;7410103;19;19918;-68
2023/01/16 12:43:24;;;;;;;0.70;0.30;;;18.40;65.30;;;;;;7407300;19;19915;-68
2023/01/16 12:45:55;;;;;;;0.70;0.40;;;18.50;65.20;;;;;;7409452;19;19918;-68
2023/01/16 12:48:37;;;;;;;1.25;0.50;;;18.50;65.00;;;;;;7410247;19;19918;-69
2023/01/16 12:51:21;;;;;;;0.63;0.10;;;18.60;65.00;;;;;;7412127;19;19919;-68
2023/01/16 12:54:28;;;;;;;0.55;0.10;;;18.70;64.90;;;;;;7410539;19;19918;-69
2023/01/16 12:57:19;;;;;;;1.08;0.30;;;18.80;64.80;;;;;;7408560;19;20248;-69
2023/01/16 12:59:52;;;;;;;1.27;0.50;;;18.90;64.80;;;;;;7408771;19;19915;-68
2023/01/16 13:02:30;;;;;;;1.13;0.43;;;18.90;64.50;;;;;;7407347;19;19922;-68
2023/01/16 13:05:03;;;;;;;0.88;0.50;;;19.00;64.40;;;;;;7409846;19;19922;-69
2023/01/16 13:07:36;;;;;;;0.43;0.00;;;19.00;64.20;;;;;;7408882;19;19982;-68
2023/01/16 13:15:45;;;;;;;1.02;0.93;;;19.20;64.10;;;;;;7408233;19;19918;-70
2023/01/16 13:18:21;;;;;;;1.02;0.00;;;19.30;64.10;;;;;;7411100;19;19970;-68
2023/01/16 13:20:53;;;;;;;1.55;0.60;;;19.30;63.90;;;;;;7408200;19;19931;-68
2023/01/16 13:23:26;;;;;;;0.73;0.25;;;19.30;63.90;;;;;;7405630;19;20311;-68
2023/01/16 13:26:02;;;;;;;0.85;0.50;;;19.30;63.80;;;;;;7407462;19;19918;-68
2023/01/16 13:28:42;;;;;;;;;;;19.40;64.40;;;;;;7410273;19;19919;-68
2023/01/16 13:31:20;;;;;;;0.88;0.45;;;19.40;63.80;;;;;;7407458;19;19953;-68
2023/01/16 13:33:54;;;;;;;1.10;0.80;;;19.50;63.70;;;;;;7406229;19;19966;-68
2023/01/16 13:36:44;;;;;;;0.70;0.10;;;19.50;63.70;;;;;;7408541;19;19921;-68
2023/01/16 13:39:39;;;;;;;0.80;0.50;;;19.50;63.60;;;;;;7407591;19;19922;-69
2023/01/16 13:42:10;;;;;;;1.27;0.57;;;19.50;63.60;;;;;;7404003;19;19918;-68
2023/01/16 13:47:30;;;;;;;0.88;0.52;;;19.60;63.60;;;;;;7408755;19;19935;-68
2023/01/16 13:50:15;;;;;;;0.93;0.32;;;19.60;63.60;;;;;;7411217;19;20343;-69
2023/01/16 13:52:45;;;;;;;0.45;0.05;;;19.60;63.50;;;;;;7407199;19;20317;-69
2023/01/16 13:55:29;;;;;;;1.35;0.70;;;19.70;63.50;;;;;;7410160;19;19922;-68
2023/01/16 13:58:09;;;;;;;1.15;0.90;;;19.70;63.50;;;;;;7407181;19;19921;-68
2023/01/16 14:00:41;;;;;;;0.85;0.38;;;19.70;63.40;;;;;;7407307;19;19918;-69
2023/01/16 14:03:29;;;;;;;0.20;0.10;;;19.70;63.40;;;;;;7409372;19;19926;-68
2023/01/16 14:06:19;;;;;;;0.60;0.10;;;19.80;63.40;;;;;;7407073;19;19927;-69
2023/01/16 14:11:38;;;;;;;0.95;0.00;;;19.80;63.40;;;;;;7406886;19;20284;-69
2023/01/16 14:17:27;;;;;;;0.70;0.50;;;19.80;63.30;;;;;;7409536;19;19918;-68
2023/01/16 14:19:59;;;;;;;0.75;0.38;;;19.90;63.90;;;;;;7407067;19;19974;-68
2023/01/16 14:25:27;;;;;;;1.05;0.63;;;19.90;63.20;;;;;;7405942;19;20313;-68
2023/01/16 14:27:58;;;;;;;0.68;0.35;;;19.90;63.20;;;;;;7405641;19;19987;-68
2023/01/16 14:30:31;;;;;;;0.85;0.43;;;20.00;63.20;;;;;;7405477;19;19915;-68
2023/01/16 14:33:06;;;;;;;1.17;0.55;;;20.00;63.20;;;;;;7405651;19;19925;-68
2023/01/16 14:35:47;;;;;;;0.95;0.73;;;20.00;63.20;;;;;;7405753;19;19978;-68
2023/01/16 14:38:19;;;;;;;1.02;0.90;;;19.90;63.20;;;;;;7406451;19;19919;-69